sensor_id;sensor_type;location;lat;lon;timestamp;P1;durP1;ratioP1;P2;durP2;ratioP2
16288;SDS011;26089;43.538;5.250;2022-09-09T00:01:43;2.60;;;1.60;;
16288;SDS011;26089;43.538;5.250;2022-09-09T00:04:21;2.13;;;1.67;;
16288;SDS011;26089;43.538;5.250;2022-09-09T00:06:56;3.33;;;1.80;;
16288;SDS011;26089;43.538;5.250;2022-09-09T00:09:30;1.50;;;1.40;;
16288;SDS011;26089;43.538;5.250;2022-09-09T00:12:04;2.63;;;1.70;;
16288;SDS011;26089;43.538;5.250;2022-09-09T00:14:39;1.90;;;1.80;;
16288;SDS011;26089;43.538;5.250;2022-09-09T00:17:16;1.60;;;1.50;;
16288;SDS011;26089;43.538;5.250;2022-09-09T00:19:55;6.33;;;1.73;;
16288;SDS011;26089;43.538;5.250;2022-09-09T00:22:27;2.80;;;1.70;;
16288;SDS011;26089;43.538;5.250;2022-09-09T00:24:58;1.60;;;1.50;;
16288;SDS011;26089;43.538;5.250;2022-09-09T00:27:37;5.53;;;1.50;;
16288;SDS011;26089;43.538;5.250;2022-09-09T00:30:14;3.07;;;1.67;;
16288;SDS011;26089;43.538;5.250;2022-09-09T00:32:44;1.83;;;1.60;;
16288;SDS011;26089;43.538;5.250;2022-09-09T00:35:16;4.57;;;1.53;;
16288;SDS011;26089;43.538;5.250;2022-09-09T00:37:47;2.80;;;1.70;;
16288;SDS011;26089;43.538;5.250;2022-09-09T00:40:25;4.33;;;1.80;;
16288;SDS011;26089;43.538;5.250;2022-09-09T00:43:01;3.47;;;1.97;;
16288;SDS011;26089;43.538;5.250;2022-09-09T00:45:51;1.77;;;1.67;;
16288;SDS011;26089;43.538;5.250;2022-09-09T00:48:31;1.53;;;1.40;;
16288;SDS011;26089;43.538;5.250;2022-09-09T00:51:10;2.20;;;2.00;;
16288;SDS011;26089;43.538;5.250;2022-09-09T00:53:53;2.03;;;1.83;;
16288;SDS011;26089;43.538;5.250;2022-09-09T00:56:33;2.17;;;1.90;;
16288;SDS011;26089;43.538;5.250;2022-09-09T00:59:12;2.60;;;1.73;;
16288;SDS011;26089;43.538;5.250;2022-09-09T01:01:49;5.00;;;2.10;;
16288;SDS011;26089;43.538;5.250;2022-09-09T01:04:19;3.10;;;1.80;;
16288;SDS011;26089;43.538;5.250;2022-09-09T01:06:58;2.53;;;1.77;;
16288;SDS011;26089;43.538;5.250;2022-09-09T01:09:38;2.90;;;2.00;;
16288;SDS011;26089;43.538;5.250;2022-09-09T01:12:14;2.50;;;2.00;;
16288;SDS011;26089;43.538;5.250;2022-09-09T01:14:43;2.50;;;1.80;;
16288;SDS011;26089;43.538;5.250;2022-09-09T01:17:14;2.30;;;1.73;;
16288;SDS011;26089;43.538;5.250;2022-09-09T01:19:49;4.57;;;1.77;;
16288;SDS011;26089;43.538;5.250;2022-09-09T01:22:29;3.63;;;2.37;;
16288;SDS011;26089;43.538;5.250;2022-09-09T01:28:00;2.53;;;2.00;;
16288;SDS011;26089;43.538;5.250;2022-09-09T01:30:37;3.70;;;1.87;;
16288;SDS011;26089;43.538;5.250;2022-09-09T01:33:07;2.73;;;1.93;;
16288;SDS011;26089;43.538;5.250;2022-09-09T01:35:42;5.03;;;2.20;;
16288;SDS011;26089;43.538;5.250;2022-09-09T01:38:15;3.20;;;2.10;;
16288;SDS011;26089;43.538;5.250;2022-09-09T01:40:44;3.60;;;1.83;;
16288;SDS011;26089;43.538;5.250;2022-09-09T01:43:12;4.30;;;1.80;;
16288;SDS011;26089;43.538;5.250;2022-09-09T01:45:40;3.03;;;1.83;;
16288;SDS011;26089;43.538;5.250;2022-09-09T01:54:54;2.00;;;1.80;;
16288;SDS011;26089;43.538;5.250;2022-09-09T01:57:23;2.53;;;2.10;;
16288;SDS011;26089;43.538;5.250;2022-09-09T02:00:00;5.37;;;2.20;;
16288;SDS011;26089;43.538;5.250;2022-09-09T02:02:32;4.23;;;2.30;;
16288;SDS011;26089;43.538;5.250;2022-09-09T02:05:06;2.00;;;1.77;;
16288;SDS011;26089;43.538;5.250;2022-09-09T02:07:41;2.47;;;1.80;;
16288;SDS011;26089;43.538;5.250;2022-09-09T02:10:12;2.80;;;2.03;;
16288;SDS011;26089;43.538;5.250;2022-09-09T02:12:47;3.73;;;2.00;;
16288;SDS011;26089;43.538;5.250;2022-09-09T02:15:20;3.67;;;2.10;;
16288;SDS011;26089;43.538;5.250;2022-09-09T02:17:52;1.97;;;1.80;;
16288;SDS011;26089;43.538;5.250;2022-09-09T02:20:23;2.13;;;1.93;;
16288;SDS011;26089;43.538;5.250;2022-09-09T02:22:51;3.80;;;2.10;;
16288;SDS011;26089;43.538;5.250;2022-09-09T02:25:21;2.20;;;2.00;;
16288;SDS011;26089;43.538;5.250;2022-09-09T02:27:50;4.07;;;2.33;;
16288;SDS011;26089;43.538;5.250;2022-09-09T02:30:18;5.03;;;2.33;;
16288;SDS011;26089;43.538;5.250;2022-09-09T02:32:48;3.23;;;1.80;;
16288;SDS011;26089;43.538;5.250;2022-09-09T02:35:17;3.30;;;1.80;;
16288;SDS011;26089;43.538;5.250;2022-09-09T02:37:47;2.63;;;1.80;;
16288;SDS011;26089;43.538;5.250;2022-09-09T02:40:16;2.37;;;1.90;;
16288;SDS011;26089;43.538;5.250;2022-09-09T02:42:44;3.43;;;2.10;;
16288;SDS011;26089;43.538;5.250;2022-09-09T02:45:13;3.30;;;2.03;;
16288;SDS011;26089;43.538;5.250;2022-09-09T02:47:45;2.37;;;1.97;;
16288;SDS011;26089;43.538;5.250;2022-09-09T02:50:19;5.30;;;2.10;;
16288;SDS011;26089;43.538;5.250;2022-09-09T02:52:55;2.60;;;1.97;;
16288;SDS011;26089;43.538;5.250;2022-09-09T02:55:35;2.80;;;2.27;;
16288;SDS011;26089;43.538;5.250;2022-09-09T02:58:06;2.87;;;1.97;;
16288;SDS011;26089;43.538;5.250;2022-09-09T03:00:37;1.90;;;1.80;;
16288;SDS011;26089;43.538;5.250;2022-09-09T03:03:07;3.43;;;2.10;;
16288;SDS011;26089;43.538;5.250;2022-09-09T03:05:35;5.17;;;2.13;;
16288;SDS011;26089;43.538;5.250;2022-09-09T03:08:02;3.87;;;2.30;;
16288;SDS011;26089;43.538;5.250;2022-09-09T03:10:30;4.30;;;2.10;;
16288;SDS011;26089;43.538;5.250;2022-09-09T03:12:58;4.00;;;2.43;;
16288;SDS011;26089;43.538;5.250;2022-09-09T03:15:25;3.43;;;2.27;;
16288;SDS011;26089;43.538;5.250;2022-09-09T03:17:54;3.47;;;1.80;;
16288;SDS011;26089;43.538;5.250;2022-09-09T03:20:23;2.60;;;2.40;;
16288;SDS011;26089;43.538;5.250;2022-09-09T03:22:51;4.20;;;1.80;;
16288;SDS011;26089;43.538;5.250;2022-09-09T03:25:19;3.80;;;1.80;;
16288;SDS011;26089;43.538;5.250;2022-09-09T03:27:48;2.70;;;1.57;;
16288;SDS011;26089;43.538;5.250;2022-09-09T03:30:18;2.80;;;1.90;;
16288;SDS011;26089;43.538;5.250;2022-09-09T03:32:45;1.73;;;1.60;;
16288;SDS011;26089;43.538;5.250;2022-09-09T03:35:12;1.53;;;1.50;;
16288;SDS011;26089;43.538;5.250;2022-09-09T03:37:40;2.97;;;1.67;;
16288;SDS011;26089;43.538;5.250;2022-09-09T03:40:08;3.13;;;2.30;;
16288;SDS011;26089;43.538;5.250;2022-09-09T03:42:35;4.13;;;2.20;;
16288;SDS011;26089;43.538;5.250;2022-09-09T03:45:03;3.63;;;1.70;;
16288;SDS011;26089;43.538;5.250;2022-09-09T03:47:31;1.60;;;1.50;;
16288;SDS011;26089;43.538;5.250;2022-09-09T03:49:58;2.13;;;1.90;;
16288;SDS011;26089;43.538;5.250;2022-09-09T03:52:25;1.70;;;1.60;;
16288;SDS011;26089;43.538;5.250;2022-09-09T03:54:53;1.67;;;1.57;;
16288;SDS011;26089;43.538;5.250;2022-09-09T03:57:21;1.60;;;1.50;;
16288;SDS011;26089;43.538;5.250;2022-09-09T03:59:48;1.77;;;1.67;;
16288;SDS011;26089;43.538;5.250;2022-09-09T04:02:15;3.67;;;1.70;;
16288;SDS011;26089;43.538;5.250;2022-09-09T04:04:42;5.73;;;1.70;;
16288;SDS011;26089;43.538;5.250;2022-09-09T04:07:09;2.30;;;1.70;;
16288;SDS011;26089;43.538;5.250;2022-09-09T04:09:37;1.70;;;1.57;;
16288;SDS011;26089;43.538;5.250;2022-09-09T04:12:05;3.20;;;1.87;;
16288;SDS011;26089;43.538;5.250;2022-09-09T04:14:32;1.70;;;1.60;;
16288;SDS011;26089;43.538;5.250;2022-09-09T04:16:59;3.50;;;1.50;;
16288;SDS011;26089;43.538;5.250;2022-09-09T04:19:29;3.03;;;1.50;;
16288;SDS011;26089;43.538;5.250;2022-09-09T04:21:56;3.83;;;1.60;;
16288;SDS011;26089;43.538;5.250;2022-09-09T04:24:24;2.13;;;1.60;;
16288;SDS011;26089;43.538;5.250;2022-09-09T04:26:52;2.17;;;1.47;;
16288;SDS011;26089;43.538;5.250;2022-09-09T04:29:20;1.57;;;1.43;;
16288;SDS011;26089;43.538;5.250;2022-09-09T04:31:47;2.67;;;1.60;;
16288;SDS011;26089;43.538;5.250;2022-09-09T04:34:14;1.83;;;1.60;;
16288;SDS011;26089;43.538;5.250;2022-09-09T04:36:41;2.30;;;1.80;;
16288;SDS011;26089;43.538;5.250;2022-09-09T04:39:08;1.60;;;1.40;;
16288;SDS011;26089;43.538;5.250;2022-09-09T04:41:35;2.27;;;1.63;;
16288;SDS011;26089;43.538;5.250;2022-09-09T04:44:02;3.80;;;1.57;;
16288;SDS011;26089;43.538;5.250;2022-09-09T04:46:31;2.07;;;1.70;;
16288;SDS011;26089;43.538;5.250;2022-09-09T04:48:59;4.80;;;1.70;;
16288;SDS011;26089;43.538;5.250;2022-09-09T04:51:26;1.47;;;1.37;;
16288;SDS011;26089;43.538;5.250;2022-09-09T04:53:53;1.80;;;1.50;;
16288;SDS011;26089;43.538;5.250;2022-09-09T04:56:20;3.60;;;1.53;;
16288;SDS011;26089;43.538;5.250;2022-09-09T04:58:47;1.70;;;1.60;;
16288;SDS011;26089;43.538;5.250;2022-09-09T05:01:15;1.70;;;1.60;;
16288;SDS011;26089;43.538;5.250;2022-09-09T05:03:45;2.70;;;1.80;;
16288;SDS011;26089;43.538;5.250;2022-09-09T05:06:13;4.13;;;1.70;;
16288;SDS011;26089;43.538;5.250;2022-09-09T05:08:41;3.00;;;1.40;;
16288;SDS011;26089;43.538;5.250;2022-09-09T05:11:14;2.07;;;1.50;;
16288;SDS011;26089;43.538;5.250;2022-09-09T05:13:42;1.80;;;1.40;;
16288;SDS011;26089;43.538;5.250;2022-09-09T05:16:10;2.10;;;1.37;;
16288;SDS011;26089;43.538;5.250;2022-09-09T05:18:37;1.50;;;1.50;;
16288;SDS011;26089;43.538;5.250;2022-09-09T05:21:06;2.73;;;1.47;;
16288;SDS011;26089;43.538;5.250;2022-09-09T05:23:33;1.53;;;1.40;;
16288;SDS011;26089;43.538;5.250;2022-09-09T05:26:01;2.45;;;1.75;;
16288;SDS011;26089;43.538;5.250;2022-09-09T05:28:28;3.90;;;1.80;;
16288;SDS011;26089;43.538;5.250;2022-09-09T05:30:56;1.73;;;1.53;;
16288;SDS011;26089;43.538;5.250;2022-09-09T05:33:25;2.63;;;1.50;;
16288;SDS011;26089;43.538;5.250;2022-09-09T05:35:56;2.63;;;1.50;;
16288;SDS011;26089;43.538;5.250;2022-09-09T05:38:25;1.93;;;1.50;;
16288;SDS011;26089;43.538;5.250;2022-09-09T05:40:53;1.57;;;1.47;;
16288;SDS011;26089;43.538;5.250;2022-09-09T05:43:21;2.73;;;1.63;;
16288;SDS011;26089;43.538;5.250;2022-09-09T05:45:48;2.57;;;1.43;;
16288;SDS011;26089;43.538;5.250;2022-09-09T05:48:27;1.70;;;1.43;;
16288;SDS011;26089;43.538;5.250;2022-09-09T05:50:55;2.70;;;1.50;;
16288;SDS011;26089;43.538;5.250;2022-09-09T05:53:22;1.50;;;1.27;;
16288;SDS011;26089;43.538;5.250;2022-09-09T05:55:57;1.97;;;1.73;;
16288;SDS011;26089;43.538;5.250;2022-09-09T05:58:25;1.50;;;1.40;;
16288;SDS011;26089;43.538;5.250;2022-09-09T06:00:52;1.67;;;1.43;;
16288;SDS011;26089;43.538;5.250;2022-09-09T06:03:26;1.97;;;1.80;;
16288;SDS011;26089;43.538;5.250;2022-09-09T06:05:56;2.10;;;1.70;;
16288;SDS011;26089;43.538;5.250;2022-09-09T06:08:24;2.03;;;1.63;;
16288;SDS011;26089;43.538;5.250;2022-09-09T06:10:53;4.00;;;1.50;;
16288;SDS011;26089;43.538;5.250;2022-09-09T06:13:27;1.67;;;1.50;;
16288;SDS011;26089;43.538;5.250;2022-09-09T06:15:54;3.10;;;1.60;;
16288;SDS011;26089;43.538;5.250;2022-09-09T06:18:21;3.40;;;1.83;;
16288;SDS011;26089;43.538;5.250;2022-09-09T06:20:55;2.33;;;2.13;;
16288;SDS011;26089;43.538;5.250;2022-09-09T06:23:23;2.03;;;1.80;;
16288;SDS011;26089;43.538;5.250;2022-09-09T06:25:51;3.00;;;1.70;;
16288;SDS011;26089;43.538;5.250;2022-09-09T06:28:19;1.80;;;1.67;;
16288;SDS011;26089;43.538;5.250;2022-09-09T06:30:46;3.33;;;1.80;;
16288;SDS011;26089;43.538;5.250;2022-09-09T06:33:13;2.33;;;1.87;;
16288;SDS011;26089;43.538;5.250;2022-09-09T06:35:40;2.83;;;1.90;;
16288;SDS011;26089;43.538;5.250;2022-09-09T06:38:07;3.70;;;1.70;;
16288;SDS011;26089;43.538;5.250;2022-09-09T06:40:34;4.83;;;2.10;;
16288;SDS011;26089;43.538;5.250;2022-09-09T06:43:02;1.97;;;1.70;;
16288;SDS011;26089;43.538;5.250;2022-09-09T06:45:30;1.90;;;1.63;;
16288;SDS011;26089;43.538;5.250;2022-09-09T06:47:57;4.40;;;1.80;;
16288;SDS011;26089;43.538;5.250;2022-09-09T06:50:24;2.63;;;1.87;;
16288;SDS011;26089;43.538;5.250;2022-09-09T06:52:51;4.97;;;2.33;;
16288;SDS011;26089;43.538;5.250;2022-09-09T06:55:18;2.70;;;1.80;;
16288;SDS011;26089;43.538;5.250;2022-09-09T06:57:45;2.97;;;1.83;;
16288;SDS011;26089;43.538;5.250;2022-09-09T07:00:13;3.90;;;1.93;;
16288;SDS011;26089;43.538;5.250;2022-09-09T07:02:43;3.50;;;1.63;;
16288;SDS011;26089;43.538;5.250;2022-09-09T07:05:10;2.40;;;1.77;;
16288;SDS011;26089;43.538;5.250;2022-09-09T07:07:37;2.20;;;1.70;;
16288;SDS011;26089;43.538;5.250;2022-09-09T07:10:04;3.00;;;1.80;;
16288;SDS011;26089;43.538;5.250;2022-09-09T07:12:32;3.43;;;1.60;;
16288;SDS011;26089;43.538;5.250;2022-09-09T07:14:59;2.63;;;1.70;;
16288;SDS011;26089;43.538;5.250;2022-09-09T07:17:26;3.33;;;1.67;;
16288;SDS011;26089;43.538;5.250;2022-09-09T07:19:55;3.17;;;2.33;;
16288;SDS011;26089;43.538;5.250;2022-09-09T07:22:22;5.67;;;1.30;;
16288;SDS011;26089;43.538;5.250;2022-09-09T07:24:50;3.83;;;1.77;;
16288;SDS011;26089;43.538;5.250;2022-09-09T07:27:17;2.37;;;1.60;;
16288;SDS011;26089;43.538;5.250;2022-09-09T07:29:44;1.60;;;1.50;;
16288;SDS011;26089;43.538;5.250;2022-09-09T07:32:11;4.73;;;1.70;;
16288;SDS011;26089;43.538;5.250;2022-09-09T07:34:38;3.23;;;1.57;;
16288;SDS011;26089;43.538;5.250;2022-09-09T07:37:06;3.20;;;1.43;;
16288;SDS011;26089;43.538;5.250;2022-09-09T07:39:36;4.13;;;1.60;;
16288;SDS011;26089;43.538;5.250;2022-09-09T07:42:03;2.03;;;1.50;;
16288;SDS011;26089;43.538;5.250;2022-09-09T07:44:31;2.43;;;1.50;;
16288;SDS011;26089;43.538;5.250;2022-09-09T07:47:00;4.43;;;1.40;;
16288;SDS011;26089;43.538;5.250;2022-09-09T07:49:27;2.63;;;1.40;;
16288;SDS011;26089;43.538;5.250;2022-09-09T07:51:54;1.57;;;1.37;;
16288;SDS011;26089;43.538;5.250;2022-09-09T07:54:22;2.20;;;1.70;;
16288;SDS011;26089;43.538;5.250;2022-09-09T07:56:50;3.67;;;1.50;;
16288;SDS011;26089;43.538;5.250;2022-09-09T07:59:17;1.37;;;1.03;;
16288;SDS011;26089;43.538;5.250;2022-09-09T08:01:45;0.93;;;0.93;;
16288;SDS011;26089;43.538;5.250;2022-09-09T08:04:14;0.90;;;0.90;;
16288;SDS011;26089;43.538;5.250;2022-09-09T08:06:43;1.33;;;1.10;;
16288;SDS011;26089;43.538;5.250;2022-09-09T08:09:11;2.13;;;1.10;;
16288;SDS011;26089;43.538;5.250;2022-09-09T08:11:40;1.80;;;1.23;;
16288;SDS011;26089;43.538;5.250;2022-09-09T08:14:08;2.73;;;1.30;;
16288;SDS011;26089;43.538;5.250;2022-09-09T08:16:37;1.33;;;1.10;;
16288;SDS011;26089;43.538;5.250;2022-09-09T08:19:05;3.17;;;1.20;;
16288;SDS011;26089;43.538;5.250;2022-09-09T08:21:33;4.20;;;1.00;;
16288;SDS011;26089;43.538;5.250;2022-09-09T08:24:03;3.23;;;1.03;;
16288;SDS011;26089;43.538;5.250;2022-09-09T08:26:32;5.10;;;1.30;;
16288;SDS011;26089;43.538;5.250;2022-09-09T08:29:02;1.57;;;1.40;;
16288;SDS011;26089;43.538;5.250;2022-09-09T08:31:32;4.10;;;1.33;;
16288;SDS011;26089;43.538;5.250;2022-09-09T08:34:01;2.30;;;1.20;;
16288;SDS011;26089;43.538;5.250;2022-09-09T08:36:29;3.20;;;1.20;;
16288;SDS011;26089;43.538;5.250;2022-09-09T08:38:59;3.20;;;1.23;;
16288;SDS011;26089;43.538;5.250;2022-09-09T08:44:38;1.87;;;1.00;;
16288;SDS011;26089;43.538;5.250;2022-09-09T08:47:19;2.60;;;1.20;;
16288;SDS011;26089;43.538;5.250;2022-09-09T08:50:01;2.20;;;1.50;;
16288;SDS011;26089;43.538;5.250;2022-09-09T08:52:40;4.50;;;1.47;;
16288;SDS011;26089;43.538;5.250;2022-09-09T08:55:15;2.20;;;1.37;;
16288;SDS011;26089;43.538;5.250;2022-09-09T08:57:51;2.30;;;1.20;;
16288;SDS011;26089;43.538;5.250;2022-09-09T09:00:21;1.13;;;1.13;;
16288;SDS011;26089;43.538;5.250;2022-09-09T09:02:54;1.63;;;1.20;;
16288;SDS011;26089;43.538;5.250;2022-09-09T09:05:33;1.20;;;1.07;;
16288;SDS011;26089;43.538;5.250;2022-09-09T09:08:08;2.43;;;1.47;;
16288;SDS011;26089;43.538;5.250;2022-09-09T09:10:45;1.50;;;1.40;;
16288;SDS011;26089;43.538;5.250;2022-09-09T09:13:15;3.03;;;1.40;;
16288;SDS011;26089;43.538;5.250;2022-09-09T09:15:48;1.80;;;1.10;;
16288;SDS011;26089;43.538;5.250;2022-09-09T09:18:20;2.73;;;1.10;;
16288;SDS011;26089;43.538;5.250;2022-09-09T09:20:49;1.60;;;0.80;;
16288;SDS011;26089;43.538;5.250;2022-09-09T09:23:22;1.80;;;0.93;;
16288;SDS011;26089;43.538;5.250;2022-09-09T09:25:52;3.70;;;1.13;;
16288;SDS011;26089;43.538;5.250;2022-09-09T09:28:25;0.73;;;0.73;;
16288;SDS011;26089;43.538;5.250;2022-09-09T09:30:57;1.87;;;0.90;;
16288;SDS011;26089;43.538;5.250;2022-09-09T09:33:27;1.33;;;1.23;;
16288;SDS011;26089;43.538;5.250;2022-09-09T09:35:59;1.15;;;0.80;;
16288;SDS011;26089;43.538;5.250;2022-09-09T09:38:27;1.08;;;1.00;;
16288;SDS011;26089;43.538;5.250;2022-09-09T09:40:56;1.98;;;1.23;;
16288;SDS011;26089;43.538;5.250;2022-09-09T09:43:25;1.48;;;1.10;;
16288;SDS011;26089;43.538;5.250;2022-09-09T09:45:55;0.67;;;0.67;;
16288;SDS011;26089;43.538;5.250;2022-09-09T09:48:24;1.00;;;1.00;;
16288;SDS011;26089;43.538;5.250;2022-09-09T09:50:52;0.90;;;0.90;;
16288;SDS011;26089;43.538;5.250;2022-09-09T09:53:24;1.00;;;0.93;;
16288;SDS011;26089;43.538;5.250;2022-09-09T09:55:54;1.00;;;0.98;;
16288;SDS011;26089;43.538;5.250;2022-09-09T09:58:23;0.68;;;0.68;;
16288;SDS011;26089;43.538;5.250;2022-09-09T10:00:53;0.80;;;0.80;;
16288;SDS011;26089;43.538;5.250;2022-09-09T10:03:23;2.10;;;1.00;;
16288;SDS011;26089;43.538;5.250;2022-09-09T10:05:53;1.98;;;1.10;;
16288;SDS011;26089;43.538;5.250;2022-09-09T10:08:21;0.98;;;0.82;;
16288;SDS011;26089;43.538;5.250;2022-09-09T10:10:51;0.82;;;0.82;;
16288;SDS011;26089;43.538;5.250;2022-09-09T10:13:27;1.52;;;0.85;;
16288;SDS011;26089;43.538;5.250;2022-09-09T10:16:07;1.38;;;0.95;;
16288;SDS011;26089;43.538;5.250;2022-09-09T10:18:47;1.70;;;1.00;;
16288;SDS011;26089;43.538;5.250;2022-09-09T10:21:27;2.08;;;0.95;;
16288;SDS011;26089;43.538;5.250;2022-09-09T10:24:14;0.60;;;0.60;;
16288;SDS011;26089;43.538;5.250;2022-09-09T10:26:58;0.80;;;0.80;;
16288;SDS011;26089;43.538;5.250;2022-09-09T10:29:38;1.40;;;1.00;;
16288;SDS011;26089;43.538;5.250;2022-09-09T10:32:33;1.98;;;1.00;;
16288;SDS011;26089;43.538;5.250;2022-09-09T10:35:04;0.88;;;0.82;;
16288;SDS011;26089;43.538;5.250;2022-09-09T10:37:43;0.60;;;0.60;;
16288;SDS011;26089;43.538;5.250;2022-09-09T10:40:21;0.80;;;0.80;;
16288;SDS011;26089;43.538;5.250;2022-09-09T10:42:57;0.70;;;0.70;;
16288;SDS011;26089;43.538;5.250;2022-09-09T10:45:32;1.30;;;0.60;;
16288;SDS011;26089;43.538;5.250;2022-09-09T10:48:09;0.80;;;0.80;;
16288;SDS011;26089;43.538;5.250;2022-09-09T10:50:56;0.57;;;0.57;;
16288;SDS011;26089;43.538;5.250;2022-09-09T10:53:35;1.10;;;0.70;;
16288;SDS011;26089;43.538;5.250;2022-09-09T10:56:07;1.27;;;0.88;;
16288;SDS011;26089;43.538;5.250;2022-09-09T10:58:40;0.77;;;0.50;;
16288;SDS011;26089;43.538;5.250;2022-09-09T11:01:15;0.60;;;0.60;;
16288;SDS011;26089;43.538;5.250;2022-09-09T11:03:47;0.77;;;0.77;;
16288;SDS011;26089;43.538;5.250;2022-09-09T11:06:21;0.70;;;0.70;;
16288;SDS011;26089;43.538;5.250;2022-09-09T11:08:53;1.35;;;0.98;;
16288;SDS011;26089;43.538;5.250;2022-09-09T11:11:21;0.80;;;0.80;;
16288;SDS011;26089;43.538;5.250;2022-09-09T11:13:55;1.48;;;0.85;;
16288;SDS011;26089;43.538;5.250;2022-09-09T11:16:27;0.60;;;0.60;;
16288;SDS011;26089;43.538;5.250;2022-09-09T11:18:59;0.88;;;0.77;;
16288;SDS011;26089;43.538;5.250;2022-09-09T11:21:31;1.98;;;0.98;;
16288;SDS011;26089;43.538;5.250;2022-09-09T11:24:05;0.70;;;0.70;;
16288;SDS011;26089;43.538;5.250;2022-09-09T11:26:41;1.13;;;0.80;;
16288;SDS011;26089;43.538;5.250;2022-09-09T11:29:38;0.85;;;0.77;;
16288;SDS011;26089;43.538;5.250;2022-09-09T11:35:21;1.08;;;0.75;;
16288;SDS011;26089;43.538;5.250;2022-09-09T11:38:04;1.73;;;1.15;;
16288;SDS011;26089;43.538;5.250;2022-09-09T11:40:46;2.25;;;0.88;;
16288;SDS011;26089;43.538;5.250;2022-09-09T11:43:15;0.98;;;0.80;;
16288;SDS011;26089;43.538;5.250;2022-09-09T11:45:50;0.80;;;0.80;;
16288;SDS011;26089;43.538;5.250;2022-09-09T11:48:23;27.45;;;3.03;;
16288;SDS011;26089;43.538;5.250;2022-09-09T11:51:01;4.53;;;1.13;;
16288;SDS011;26089;43.538;5.250;2022-09-09T11:53:32;1.58;;;1.10;;
16288;SDS011;26089;43.538;5.250;2022-09-09T11:56:01;1.38;;;1.27;;
16288;SDS011;26089;43.538;5.250;2022-09-09T11:58:33;1.08;;;0.82;;
16288;SDS011;26089;43.538;5.250;2022-09-09T12:01:13;1.13;;;1.00;;
16288;SDS011;26089;43.538;5.250;2022-09-09T12:03:43;0.82;;;0.82;;
16288;SDS011;26089;43.538;5.250;2022-09-09T12:06:15;0.77;;;0.77;;
16288;SDS011;26089;43.538;5.250;2022-09-09T12:08:46;1.63;;;0.90;;
16288;SDS011;26089;43.538;5.250;2022-09-09T12:11:25;3.75;;;1.02;;
16288;SDS011;26089;43.538;5.250;2022-09-09T12:13:53;0.82;;;0.80;;
16288;SDS011;26089;43.538;5.250;2022-09-09T12:16:32;2.28;;;0.88;;
16288;SDS011;26089;43.538;5.250;2022-09-09T12:19:04;2.75;;;0.95;;
16288;SDS011;26089;43.538;5.250;2022-09-09T12:21:36;0.95;;;0.70;;
16288;SDS011;26089;43.538;5.250;2022-09-09T12:24:10;1.52;;;1.15;;
16288;SDS011;26089;43.538;5.250;2022-09-09T12:26:40;1.33;;;0.70;;
16288;SDS011;26089;43.538;5.250;2022-09-09T12:29:14;1.08;;;0.85;;
16288;SDS011;26089;43.538;5.250;2022-09-09T12:31:51;0.80;;;0.80;;
16288;SDS011;26089;43.538;5.250;2022-09-09T12:34:29;1.52;;;1.00;;
16288;SDS011;26089;43.538;5.250;2022-09-09T12:37:04;1.27;;;1.13;;
16288;SDS011;26089;43.538;5.250;2022-09-09T12:39:40;0.80;;;0.80;;
16288;SDS011;26089;43.538;5.250;2022-09-09T12:42:15;1.88;;;0.90;;
16288;SDS011;26089;43.538;5.250;2022-09-09T12:44:50;1.30;;;1.05;;
16288;SDS011;26089;43.538;5.250;2022-09-09T12:47:18;1.05;;;0.80;;
16288;SDS011;26089;43.538;5.250;2022-09-09T12:49:48;1.20;;;0.80;;
16288;SDS011;26089;43.538;5.250;2022-09-09T12:52:19;1.67;;;1.00;;
16288;SDS011;26089;43.538;5.250;2022-09-09T12:54:50;1.50;;;1.10;;
16288;SDS011;26089;43.538;5.250;2022-09-09T12:57:18;2.10;;;1.00;;
16288;SDS011;26089;43.538;5.250;2022-09-09T12:59:48;4.35;;;1.10;;
16288;SDS011;26089;43.538;5.250;2022-09-09T13:02:19;1.40;;;0.88;;
16288;SDS011;26089;43.538;5.250;2022-09-09T13:04:47;1.08;;;0.95;;
16288;SDS011;26089;43.538;5.250;2022-09-09T13:07:15;0.90;;;0.90;;
16288;SDS011;26089;43.538;5.250;2022-09-09T13:09:45;1.90;;;1.20;;
16288;SDS011;26089;43.538;5.250;2022-09-09T13:12:14;1.15;;;1.05;;
16288;SDS011;26089;43.538;5.250;2022-09-09T13:14:45;1.00;;;1.00;;
16288;SDS011;26089;43.538;5.250;2022-09-09T13:17:17;2.28;;;0.98;;
16288;SDS011;26089;43.538;5.250;2022-09-09T13:19:48;0.93;;;0.90;;
16288;SDS011;26089;43.538;5.250;2022-09-09T13:22:21;1.83;;;0.98;;
16288;SDS011;26089;43.538;5.250;2022-09-09T13:25:03;1.92;;;1.10;;
16288;SDS011;26089;43.538;5.250;2022-09-09T13:27:32;1.08;;;1.00;;
16288;SDS011;26089;43.538;5.250;2022-09-09T13:32:47;1.20;;;1.10;;
16288;SDS011;26089;43.538;5.250;2022-09-09T13:35:26;1.17;;;1.10;;
16288;SDS011;26089;43.538;5.250;2022-09-09T13:37:54;0.90;;;0.90;;
16288;SDS011;26089;43.538;5.250;2022-09-09T13:40:22;1.23;;;0.90;;
16288;SDS011;26089;43.538;5.250;2022-09-09T13:42:51;2.00;;;0.90;;
16288;SDS011;26089;43.538;5.250;2022-09-09T13:45:21;2.25;;;0.98;;
16288;SDS011;26089;43.538;5.250;2022-09-09T13:47:51;1.05;;;1.05;;
16288;SDS011;26089;43.538;5.250;2022-09-09T13:50:20;1.10;;;1.10;;
16288;SDS011;26089;43.538;5.250;2022-09-09T13:52:48;2.08;;;1.27;;
16288;SDS011;26089;43.538;5.250;2022-09-09T13:55:18;1.27;;;1.08;;
16288;SDS011;26089;43.538;5.250;2022-09-09T13:57:52;1.58;;;1.10;;
16288;SDS011;26089;43.538;5.250;2022-09-09T14:00:21;1.88;;;1.00;;
16288;SDS011;26089;43.538;5.250;2022-09-09T14:02:49;1.00;;;1.00;;
16288;SDS011;26089;43.538;5.250;2022-09-09T14:05:17;1.65;;;1.10;;
16288;SDS011;26089;43.538;5.250;2022-09-09T14:07:44;1.95;;;1.30;;
16288;SDS011;26089;43.538;5.250;2022-09-09T14:10:11;2.08;;;1.23;;
16288;SDS011;26089;43.538;5.250;2022-09-09T14:12:40;1.33;;;1.20;;
16288;SDS011;26089;43.538;5.250;2022-09-09T14:15:09;1.40;;;1.30;;
16288;SDS011;26089;43.538;5.250;2022-09-09T14:17:36;1.13;;;1.13;;
16288;SDS011;26089;43.538;5.250;2022-09-09T14:20:04;1.13;;;1.10;;
16288;SDS011;26089;43.538;5.250;2022-09-09T14:22:34;1.35;;;1.20;;
16288;SDS011;26089;43.538;5.250;2022-09-09T14:25:02;2.42;;;1.33;;
16288;SDS011;26089;43.538;5.250;2022-09-09T14:27:30;1.17;;;1.08;;
16288;SDS011;26089;43.538;5.250;2022-09-09T14:29:59;3.28;;;1.20;;
16288;SDS011;26089;43.538;5.250;2022-09-09T14:32:26;2.20;;;1.10;;
16288;SDS011;26089;43.538;5.250;2022-09-09T14:34:54;2.30;;;1.10;;
16288;SDS011;26089;43.538;5.250;2022-09-09T14:37:21;0.90;;;0.90;;
16288;SDS011;26089;43.538;5.250;2022-09-09T14:39:49;1.10;;;1.08;;
16288;SDS011;26089;43.538;5.250;2022-09-09T14:42:16;1.15;;;0.98;;
16288;SDS011;26089;43.538;5.250;2022-09-09T14:44:43;1.10;;;1.10;;
16288;SDS011;26089;43.538;5.250;2022-09-09T14:47:12;1.50;;;1.40;;
16288;SDS011;26089;43.538;5.250;2022-09-09T14:49:39;1.42;;;1.33;;
16288;SDS011;26089;43.538;5.250;2022-09-09T14:52:06;1.63;;;1.05;;
16288;SDS011;26089;43.538;5.250;2022-09-09T14:54:34;1.02;;;1.00;;
16288;SDS011;26089;43.538;5.250;2022-09-09T14:57:01;1.67;;;1.00;;
16288;SDS011;26089;43.538;5.250;2022-09-09T14:59:28;1.55;;;0.88;;
16288;SDS011;26089;43.538;5.250;2022-09-09T15:01:55;1.00;;;0.90;;
16288;SDS011;26089;43.538;5.250;2022-09-09T15:04:23;1.30;;;1.20;;
16288;SDS011;26089;43.538;5.250;2022-09-09T15:06:50;1.20;;;1.10;;
16288;SDS011;26089;43.538;5.250;2022-09-09T15:09:18;1.95;;;1.10;;
16288;SDS011;26089;43.538;5.250;2022-09-09T15:11:45;2.88;;;1.30;;
16288;SDS011;26089;43.538;5.250;2022-09-09T15:14:12;1.63;;;1.30;;
16288;SDS011;26089;43.538;5.250;2022-09-09T15:16:39;1.00;;;1.00;;
16288;SDS011;26089;43.538;5.250;2022-09-09T15:19:06;1.20;;;1.10;;
16288;SDS011;26089;43.538;5.250;2022-09-09T15:21:36;1.00;;;1.00;;
16288;SDS011;26089;43.538;5.250;2022-09-09T15:24:04;1.35;;;1.10;;
16288;SDS011;26089;43.538;5.250;2022-09-09T15:26:33;1.17;;;1.08;;
16288;SDS011;26089;43.538;5.250;2022-09-09T15:29:01;0.90;;;0.90;;